Time,TemperatureF,DewpointF,PressureIn,WindDirection,WindDirectionDegrees,WindSpeedMPH,WindSpeedGustMPH,Humidity,HourlyPrecipIn,Conditions,Clouds,dailyrainin,SolarRadiationWatts/m^2,SoftwareType,DateUTC
2013-08-10 00:02:00,56.1,50.7,29.98,South,171,1.2,1.2,82,0.00,RA,,0.00,0.0,WeatherDisplay:10.37,2013-08-10 07:02:00,
2013-08-10 00:03:00,56.1,50.7,29.98,South,171,1.2,1.2,82,0.00,RA,,0.00,0.0,WeatherDisplay:10.37,2013-08-10 07:03:00,
2013-08-10 00:04:00,56.1,50.7,29.98,South,171,1.2,0.0,82,0.00,RA,,0.00,0.0,WeatherDisplay:10.37,2013-08-10 07:04:00,
2013-08-10 00:07:00,56.1,50.7,29.97,South,171,1.2,1.2,82,0.00,RA,,0.00,0.0,WeatherDisplay:10.37,2013-08-10 07:07:00,
2013-08-10 00:08:00,56.0,50.6,29.97,South,171,1.2,1.2,82,0.00,RA,,0.00,0.0,WeatherDisplay:10.37,2013-08-10 07:08:00,
2013-08-10 00:09:00,56.0,50.6,29.97,South,171,1.2,1.2,82,0.00,RA,,0.00,0.0,WeatherDisplay:10.37,2013-08-10 07:09:00,
2013-08-10 00:12:00,56.0,50.6,29.97,South,171,0.0,0.1,82,0.00,,,0.00,0.0,WeatherDisplay:10.37,2013-08-10 07:12:00,
2013-08-10 00:14:00,56.0,50.3,29.97,South,171,1.2,0.0,81,0.00,,,0.00,0.0,WeatherDisplay:10.37,2013-08-10 07:14:00,
2013-08-10 00:15:00,56.0,50.2,29.97,South,171,0.0,1.0,81,0.00,,,0.00,0.0,WeatherDisplay:10.37,2013-08-10 07:15:00,
2013-08-10 00:18:00,55.8,50.1,29.97,South,171,1.2,1.2,81,0.00,,,0.00,0.0,WeatherDisplay:10.37,2013-08-10 07:18:00,
2013-08-10 00:20:00,55.7,50.3,29.97,South,171,1.2,1.2,82,0.00,,,0.00,0.0,WeatherDisplay:10.37,2013-08-10 07:20:00,
2013-08-10 00:23:00,55.4,50.0,29.97,South,171,0.0,0.2,82,0.00,,,0.00,0.0,WeatherDisplay:10.37,2013-08-10 07:23:00,
2013-08-10 00:25:00,55.3,49.9,29.97,South,171,1.2,1.2,82,0.00,,,0.00,0.0,WeatherDisplay:10.37,2013-08-10 07:25:00,
2013-08-10 00:26:00,55.2,49.8,29.97,South,171,0.0,0.0,82,0.00,,,0.00,0.0,WeatherDisplay:10.37,2013-08-10 07:26:00,
2013-08-10 00:28:00,55.1,49.7,29.97,South,171,0.0,0.0,82,0.00,,,0.00,0.0,WeatherDisplay:10.37,2013-08-10 07:28:00,
2013-08-10 00:30:00,55.0,49.6,29.97,South,171,0.0,0.0,82,0.00,,,0.00,0.0,WeatherDisplay:10.37,2013-08-10 07:30:00,
2013-08-10 00:31:00,54.8,49.4,29.97,South,171,1.0,1.0,82,0.00,,,0.00,0.0,WeatherDisplay:10.37,2013-08-10 07:31:00,
2013-08-10 00:33:00,54.6,49.5,29.97,South,171,1.2,1.2,83,0.00,,,0.00,0.0,WeatherDisplay:10.37,2013-08-10 07:33:00,
2013-08-10 00:34:00,54.4,49.3,29.97,South,171,1.2,1.2,83,0.00,,,0.00,0.0,WeatherDisplay:10.37,2013-08-10 07:34:00,
2013-08-10 00:35:00,54.2,49.1,29.97,South,171,1.2,1.2,83,0.00,,,0.00,0.0,WeatherDisplay:10.37,2013-08-10 07:35:00,
2013-08-10 00:36:00,54.2,49.1,29.97,South,171,1.2,1.2,83,0.00,,,0.00,0.0,WeatherDisplay:10.37,2013-08-10 07:36:00,
2013-08-10 00:37:00,54.1,49.1,29.97,South,171,1.2,1.2,83,0.00,,,0.00,0.0,WeatherDisplay:10.37,2013-08-10 07:37:00,
2013-08-10 00:38:00,54.0,49.3,29.97,South,171,1.2,0.0,84,0.00,,,0.00,0.0,WeatherDisplay:10.37,2013-08-10 07:38:00,
2013-08-10 00:39:00,54.0,49.3,29.97,South,171,1.2,1.2,84,0.00,,,0.00,0.0,WeatherDisplay:10.37,2013-08-10 07:39:00,
2013-08-10 00:41:00,53.8,49.1,29.97,South,171,1.2,1.2,84,0.00,,,0.00,0.0,WeatherDisplay:10.37,2013-08-10 07:41:00,
2013-08-10 00:42:00,53.7,49.0,29.97,South,171,1.2,0.0,84,0.00,,,0.00,0.0,WeatherDisplay:10.37,2013-08-10 07:42:00,
2013-08-10 00:43:00,53.6,49.2,29.97,South,171,2.3,2.3,85,0.00,,,0.00,0.0,WeatherDisplay:10.37,2013-08-10 07:43:00,
2013-08-10 00:44:00,53.6,49.2,29.97,South,171,2.3,2.3,85,0.00,,,0.00,0.0,WeatherDisplay:10.37,2013-08-10 07:44:00,
2013-08-10 00:46:00,53.7,49.3,29.97,South,171,1.2,1.2,85,0.00,,,0.00,0.0,WeatherDisplay:10.37,2013-08-10 07:46:00,
2013-08-10 00:47:00,53.8,49.4,29.97,South,171,1.2,1.2,85,0.00,,,0.00,0.0,WeatherDisplay:10.37,2013-08-10 07:47:00,
2013-08-10 00:48:00,53.9,49.5,29.98,South,171,1.2,1.2,85,0.00,,,0.00,0.0,WeatherDisplay:10.37,2013-08-10 07:48:00,
2013-08-10 00:49:00,53.9,49.5,29.98,South,171,1.2,0.0,85,0.00,,,0.00,0.0,WeatherDisplay:10.37,2013-08-10 07:49:00,
2013-08-10 00:51:00,53.9,49.5,29.98,South,171,0.0,0.0,85,0.00,,,0.00,0.0,WeatherDisplay:10.37,2013-08-10 07:51:00,
2013-08-10 00:52:00,53.9,49.5,29.98,South,171,0.0,0.0,85,0.00,,,0.00,0.0,WeatherDisplay:10.37,2013-08-10 07:52:00,
2013-08-10 00:53:00,53.9,49.5,29.98,South,171,0.0,0.0,85,0.00,,,0.00,0.0,WeatherDisplay:10.37,2013-08-10 07:53:00,
2013-08-10 00:54:00,53.9,49.5,29.98,South,171,0.0,0.0,85,0.00,,,0.00,0.0,WeatherDisplay:10.37,2013-08-10 07:54:00,
2013-08-10 00:57:00,53.9,49.5,29.97,South,171,1.2,1.2,85,0.00,,,0.00,0.0,WeatherDisplay:10.37,2013-08-10 07:57:00,
2013-08-10 00:58:00,54.0,49.6,29.97,South,171,2.0,2.0,85,0.00,,,0.00,0.0,WeatherDisplay:10.37,2013-08-10 07:58:00,
2013-08-10 00:59:00,54.0,49.3,29.97,South,171,1.2,1.2,84,0.00,,,0.00,0.0,WeatherDisplay:10.37,2013-08-10 07:59:00,
2013-08-10 01:02:00,53.9,49.2,29.97,South,171,1.2,1.2,84,0.00,,,0.00,0.0,WeatherDisplay:10.37,2013-08-10 08:02:00,
2013-08-10 01:04:00,53.7,49.0,29.98,South,171,3.5,3.5,84,0.00,,,0.00,0.0,WeatherDisplay:10.37,2013-08-10 08:04:00,
2013-08-10 01:05:00,53.7,49.0,29.98,South,171,3.5,3.5,84,0.00,,,0.00,0.0,WeatherDisplay:10.37,2013-08-10 08:05:00,
2013-08-10 01:07:00,53.6,48.9,29.97,South,171,1.2,1.2,84,0.00,,,0.00,0.0,WeatherDisplay:10.37,2013-08-10 08:07:00,
2013-08-10 01:08:00,53.6,48.9,29.98,South,171,1.2,1.2,84,0.00,,,0.00,0.0,WeatherDisplay:10.37,2013-08-10 08:08:00,
2013-08-10 01:09:00,53.6,48.9,29.97,South,171,0.0,0.0,84,0.00,,,0.00,0.0,WeatherDisplay:10.37,2013-08-10 08:09:00,
2013-08-10 01:10:00,53.6,48.9,29.97,South,171,0.0,0.0,84,0.00,,,0.00,0.0,WeatherDisplay:10.37,2013-08-10 08:10:00,
2013-08-10 01:12:00,53.6,49.2,29.97,South,171,2.3,2.3,85,0.00,,,0.00,0.0,WeatherDisplay:10.37,2013-08-10 08:12:00,
2013-08-10 01:13:00,53.5,49.1,29.97,South,171,1.2,0.0,85,0.00,,,0.00,0.0,WeatherDisplay:10.37,2013-08-10 08:13:00,
2013-08-10 01:15:00,53.3,48.9,29.98,South,171,0.0,0.1,85,0.00,,,0.00,0.0,WeatherDisplay:10.37,2013-08-10 08:15:00,
2013-08-10 01:18:00,53.0,48.9,29.98,South,171,1.2,1.2,86,0.00,,,0.00,0.0,WeatherDisplay:10.37,2013-08-10 08:18:00,
2013-08-10 01:20:00,53.1,49.3,29.97,South,171,1.2,1.2,87,0.00,,,0.00,0.0,WeatherDisplay:10.37,2013-08-10 08:20:00,
2013-08-10 01:23:00,53.4,49.3,29.97,South,171,1.2,1.2,86,0.00,,,0.00,0.0,WeatherDisplay:10.37,2013-08-10 08:23:00,
2013-08-10 01:25:00,53.5,49.4,29.97,South,171,3.5,3.5,86,0.00,,,0.00,0.0,WeatherDisplay:10.37,2013-08-10 08:25:00,
2013-08-10 01:26:00,53.5,49.4,29.97,South,171,3.5,3.5,86,0.00,,,0.00,0.0,WeatherDisplay:10.37,2013-08-10 08:26:00,
2013-08-10 01:28:00,53.4,49.0,29.97,South,171,1.2,1.2,85,0.00,,,0.00,0.0,WeatherDisplay:10.37,2013-08-10 08:28:00,
2013-08-10 01:29:00,53.4,49.0,29.97,South,171,1.2,1.2,85,0.00,,,0.00,0.0,WeatherDisplay:10.37,2013-08-10 08:29:00,
2013-08-10 01:30:00,53.4,49.0,29.97,South,171,1.2,1.2,85,0.00,,,0.00,0.0,WeatherDisplay:10.37,2013-08-10 08:30:00,
2013-08-10 01:31:00,53.4,49.0,29.97,South,171,1.2,1.2,85,0.00,,,0.00,0.0,WeatherDisplay:10.37,2013-08-10 08:31:00,
2013-08-10 01:34:00,53.3,48.9,29.97,South,171,1.2,1.2,85,0.00,,,0.00,0.0,WeatherDisplay:10.37,2013-08-10 08:34:00,
2013-08-10 01:36:00,53.2,48.8,29.97,South,171,1.2,1.2,85,0.00,,,0.00,0.0,WeatherDisplay:10.37,2013-08-10 08:36:00,
2013-08-10 01:37:00,53.2,49.1,29.97,South,171,1.2,1.2,86,0.00,,,0.00,0.0,WeatherDisplay:10.37,2013-08-10 08:37:00,
2013-08-10 01:39:00,53.1,49.0,29.97,South,171,1.2,1.2,86,0.00,,,0.00,0.0,WeatherDisplay:10.37,2013-08-10 08:39:00,
2013-08-10 01:40:00,53.1,49.0,29.97,South,171,1.2,1.2,86,0.00,,,0.00,0.0,WeatherDisplay:10.37,2013-08-10 08:40:00,
2013-08-10 01:41:00,53.1,49.0,29.97,South,171,1.0,0.0,86,0.00,,,0.00,0.0,WeatherDisplay:10.37,2013-08-10 08:41:00,
2013-08-10 01:42:00,53.1,49.0,29.97,South,171,1.2,0.0,86,0.00,,,0.00,0.0,WeatherDisplay:10.37,2013-08-10 08:42:00,
2013-08-10 01:44:00,53.0,48.6,29.97,South,171,1.2,1.2,85,0.00,,,0.00,0.0,WeatherDisplay:10.37,2013-08-10 08:44:00,
2013-08-10 01:45:00,52.9,48.8,29.97,South,171,1.2,1.2,86,0.00,,,0.00,0.0,WeatherDisplay:10.37,2013-08-10 08:45:00,
2013-08-10 01:46:00,52.9,48.8,29.97,South,171,1.2,1.2,86,0.00,,,0.00,0.0,WeatherDisplay:10.37,2013-08-10 08:46:00,
2013-08-10 01:47:00,52.8,48.7,29.97,South,171,1.2,1.2,86,0.00,,,0.00,0.0,WeatherDisplay:10.37,2013-08-10 08:47:00,
2013-08-10 01:49:00,52.8,48.7,29.97,South,171,2.3,2.3,86,0.00,,,0.00,0.0,WeatherDisplay:10.37,2013-08-10 08:49:00,
2013-08-10 01:51:00,52.8,48.7,29.97,South,171,1.2,1.2,86,0.00,,,0.00,0.0,WeatherDisplay:10.37,2013-08-10 08:51:00,
2013-08-10 01:52:00,52.8,48.7,29.97,South,171,1.2,1.2,86,0.00,,,0.00,0.0,WeatherDisplay:10.37,2013-08-10 08:52:00,
2013-08-10 01:53:00,52.8,48.7,29.97,South,171,1.2,1.2,86,0.00,,,0.00,0.0,WeatherDisplay:10.37,2013-08-10 08:53:00,
2013-08-10 01:55:00,52.9,48.8,29.97,South,171,2.3,2.3,86,0.00,,,0.00,0.0,WeatherDisplay:10.37,2013-08-10 08:55:00,
2013-08-10 01:56:00,52.9,48.8,29.97,South,171,2.3,2.3,86,0.00,,,0.00,0.0,WeatherDisplay:10.37,2013-08-10 08:56:00,
2013-08-10 01:57:00,52.8,48.7,29.97,South,171,2.0,2.0,86,0.00,,,0.00,0.0,WeatherDisplay:10.37,2013-08-10 08:57:00,
2013-08-10 01:58:00,52.7,48.6,29.97,South,171,1.2,1.2,86,0.00,,,0.00,0.0,WeatherDisplay:10.37,2013-08-10 08:58:00,
2013-08-10 02:01:00,52.5,48.4,29.97,South,171,2.3,2.3,86,0.00,,,0.00,0.0,WeatherDisplay:10.37,2013-08-10 09:01:00,
2013-08-10 02:03:00,52.5,48.4,29.97,South,171,2.3,2.3,86,0.00,,,0.00,0.0,WeatherDisplay:10.37,2013-08-10 09:03:00,
2013-08-10 02:06:00,52.4,48.6,29.97,SSE,165,3.5,3.5,87,0.00,,,0.00,0.0,WeatherDisplay:10.37,2013-08-10 09:06:00,
2013-08-10 02:07:00,52.5,48.7,29.97,SSE,163,3.5,3.5,87,0.00,,,0.00,0.0,WeatherDisplay:10.37,2013-08-10 09:07:00,
2013-08-10 02:08:00,52.5,48.7,29.97,SSE,163,3.5,3.5,87,0.00,,,0.00,0.0,WeatherDisplay:10.37,2013-08-10 09:08:00,
2013-08-10 02:09:00,52.5,48.4,29.97,SSE,163,3.5,3.5,86,0.00,,,0.00,0.0,WeatherDisplay:10.37,2013-08-10 09:09:00,
2013-08-10 02:11:00,52.4,48.3,29.97,SSE,163,1.2,1.2,86,0.00,,,0.00,0.0,WeatherDisplay:10.37,2013-08-10 09:11:00,
2013-08-10 02:12:00,52.4,48.6,29.97,SSE,163,1.2,1.2,87,0.00,,,0.00,0.0,WeatherDisplay:10.37,2013-08-10 09:12:00,
2013-08-10 02:13:00,52.3,48.5,29.97,SSE,163,1.2,0.0,87,0.00,,,0.00,0.0,WeatherDisplay:10.37,2013-08-10 09:13:00,
2013-08-10 02:14:00,52.3,48.5,29.97,SSE,163,1.2,0.0,87,0.00,,,0.00,0.0,WeatherDisplay:10.37,2013-08-10 09:14:00,
2013-08-10 02:17:00,52.3,48.5,29.97,SSE,163,2.3,2.3,87,0.00,,,0.00,0.0,WeatherDisplay:10.37,2013-08-10 09:17:00,
2013-08-10 02:19:00,52.2,48.4,29.97,SSE,163,1.0,0.0,87,0.00,,,0.00,0.0,WeatherDisplay:10.37,2013-08-10 09:19:00,
2013-08-10 02:22:00,52.2,48.4,29.97,SSE,163,1.2,1.2,87,0.00,,,0.00,0.0,WeatherDisplay:10.37,2013-08-10 09:22:00,
2013-08-10 02:23:00,52.2,48.4,29.97,SSE,163,1.2,0.0,87,0.00,,,0.00,0.0,WeatherDisplay:10.37,2013-08-10 09:23:00,
2013-08-10 02:24:00,52.1,48.3,29.97,SSE,163,1.2,0.0,87,0.00,,,0.00,0.0,WeatherDisplay:10.37,2013-08-10 09:24:00,
2013-08-10 02:27:00,52.0,48.3,29.97,SSE,163,0.0,0.0,87,0.00,,,0.00,0.0,WeatherDisplay:10.37,2013-08-10 09:27:00,
2013-08-10 02:28:00,52.0,48.3,29.97,SSE,163,0.0,0.0,87,0.00,,,0.00,0.0,WeatherDisplay:10.37,2013-08-10 09:28:00,
2013-08-10 02:29:00,51.9,48.2,29.97,SSE,163,0.0,0.0,87,0.00,,,0.00,0.0,WeatherDisplay:10.37,2013-08-10 09:29:00,
2013-08-10 02:32:00,52.1,48.3,29.97,SSE,163,1.2,0.0,87,0.00,,,0.00,0.0,WeatherDisplay:10.37,2013-08-10 09:32:00,
2013-08-10 02:33:00,52.1,48.3,29.97,SSE,163,1.2,1.2,87,0.00,,,0.00,0.0,WeatherDisplay:10.37,2013-08-10 09:33:00,
2013-08-10 02:34:00,52.1,48.3,29.97,SSE,163,1.2,1.2,87,0.00,,,0.00,0.0,WeatherDisplay:10.37,2013-08-10 09:34:00,
2013-08-10 02:35:00,52.1,48.3,29.97,SSE,163,1.2,0.0,87,0.00,,,0.00,0.0,WeatherDisplay:10.37,2013-08-10 09:35:00,
2013-08-10 02:37:00,52.0,47.9,29.97,SSE,163,1.2,1.2,86,0.00,,,0.00,0.0,WeatherDisplay:10.37,2013-08-10 09:37:00,
2013-08-10 02:39:00,51.9,47.8,29.97,SSE,163,0.0,0.0,86,0.00,,,0.00,0.0,WeatherDisplay:10.37,2013-08-10 09:39:00,
2013-08-10 02:40:00,51.8,48.1,29.98,SSE,163,1.2,1.2,87,0.00,,,0.00,0.0,WeatherDisplay:10.37,2013-08-10 09:40:00,
2013-08-10 02:42:00,51.7,48.0,29.98,SSE,163,1.2,1.2,87,0.00,,,0.00,0.0,WeatherDisplay:10.37,2013-08-10 09:42:00,
2013-08-10 02:44:00,51.6,47.9,29.98,SSE,163,2.3,2.3,87,0.00,,,0.00,0.0,WeatherDisplay:10.37,2013-08-10 09:44:00,
2013-08-10 02:45:00,51.5,47.8,29.98,SSE,163,0.0,0.0,87,0.00,,,0.00,0.0,WeatherDisplay:10.37,2013-08-10 09:45:00,
2013-08-10 02:47:00,51.4,47.7,29.98,SSE,163,1.2,1.2,87,0.00,,,0.00,0.0,WeatherDisplay:10.37,2013-08-10 09:47:00,
2013-08-10 02:49:00,51.4,48.0,29.98,SSE,163,0.0,0.0,88,0.00,,,0.00,0.0,WeatherDisplay:10.37,2013-08-10 09:49:00,
2013-08-10 02:50:00,51.4,47.7,29.98,SSE,163,0.0,0.0,87,0.00,,,0.00,0.0,WeatherDisplay:10.37,2013-08-10 09:50:00,
2013-08-10 02:51:00,51.4,47.7,29.98,SSE,163,0.0,0.0,87,0.00,,,0.00,0.0,WeatherDisplay:10.37,2013-08-10 09:51:00,
2013-08-10 02:53:00,51.3,47.6,29.98,SSE,163,0.0,0.0,87,0.00,,,0.00,0.0,WeatherDisplay:10.37,2013-08-10 09:53:00,
2013-08-10 02:54:00,51.3,47.6,29.98,SSE,163,0.0,0.0,87,0.00,,,0.00,0.0,WeatherDisplay:10.37,2013-08-10 09:54:00,
2013-08-10 02:55:00,51.3,47.6,29.98,SSE,163,0.0,0.0,87,0.00,,,0.00,0.0,WeatherDisplay:10.37,2013-08-10 09:55:00,
2013-08-10 02:56:00,51.3,47.6,29.98,SSE,163,0.0,0.0,87,0.00,,,0.00,0.0,WeatherDisplay:10.37,2013-08-10 09:56:00,
2013-08-10 02:58:00,51.2,47.5,29.98,SSE,163,0.0,0.0,87,0.00,,,0.00,0.0,WeatherDisplay:10.37,2013-08-10 09:58:00,
2013-08-10 02:59:00,51.1,47.4,29.98,SSE,163,0.0,0.0,87,0.00,,,0.00,0.0,WeatherDisplay:10.37,2013-08-10 09:59:00,
2013-08-10 03:00:00,51.1,47.4,29.98,SSE,163,0.0,0.0,87,0.00,,,0.00,0.0,WeatherDisplay:10.37,2013-08-10 10:00:00,
2013-08-10 03:02:00,51.1,47.7,29.98,SSE,163,0.0,0.0,88,0.00,,,0.00,0.0,WeatherDisplay:10.37,2013-08-10 10:02:00,
2013-08-10 03:03:00,51.1,47.7,29.98,SSE,163,1.2,0.0,88,0.00,,,0.00,0.0,WeatherDisplay:10.37,2013-08-10 10:03:00,
2013-08-10 03:04:00,51.0,47.6,29.97,SSE,163,0.0,0.0,88,0.00,,,0.00,0.0,WeatherDisplay:10.37,2013-08-10 10:04:00,
2013-08-10 03:05:00,51.0,47.6,29.97,SSE,163,0.0,0.0,88,0.00,,,0.00,0.0,WeatherDisplay:10.37,2013-08-10 10:05:00,
2013-08-10 03:07:00,50.9,47.5,29.97,SSE,163,0.0,0.0,88,0.00,,,0.00,0.0,WeatherDisplay:10.37,2013-08-10 10:07:00,
2013-08-10 03:08:00,50.9,47.5,29.97,SSE,163,0.0,0.2,88,0.00,,,0.00,0.0,WeatherDisplay:10.37,2013-08-10 10:08:00,
2013-08-10 03:09:00,50.9,47.5,29.97,SSE,163,2.3,2.3,88,0.00,,,0.00,0.0,WeatherDisplay:10.37,2013-08-10 10:09:00,
2013-08-10 03:10:00,50.9,47.5,29.97,SSE,163,2.3,2.3,88,0.00,,,0.00,0.0,WeatherDisplay:10.37,2013-08-10 10:10:00,
2013-08-10 03:12:00,50.8,47.4,29.97,SSE,163,1.0,0.0,88,0.00,,,0.00,0.0,WeatherDisplay:10.37,2013-08-10 10:12:00,
2013-08-10 03:13:00,50.8,47.4,29.97,SSE,163,2.3,2.3,88,0.00,,,0.00,0.0,WeatherDisplay:10.37,2013-08-10 10:13:00,
2013-08-10 03:15:00,50.8,47.4,29.97,SSE,163,1.2,0.0,88,0.00,,,0.00,0.0,WeatherDisplay:10.37,2013-08-10 10:15:00,
2013-08-10 03:16:00,50.8,47.4,29.97,SSE,163,1.2,0.0,88,0.00,,,0.00,0.0,WeatherDisplay:10.37,2013-08-10 10:16:00,
2013-08-10 03:18:00,50.8,47.4,29.97,SSE,163,1.2,0.0,88,0.00,,,0.00,0.0,WeatherDisplay:10.37,2013-08-10 10:18:00,
2013-08-10 03:19:00,50.8,47.4,29.97,SSE,163,1.2,0.0,88,0.00,,,0.00,0.0,WeatherDisplay:10.37,2013-08-10 10:19:00,
2013-08-10 03:20:00,50.7,47.3,29.97,SSE,163,0.0,0.0,88,0.00,,,0.00,0.0,WeatherDisplay:10.37,2013-08-10 10:20:00,
2013-08-10 03:21:00,50.7,47.3,29.97,SSE,163,1.2,1.2,88,0.00,,,0.00,0.0,WeatherDisplay:10.37,2013-08-10 10:21:00,
2013-08-10 03:23:00,50.7,47.3,29.97,SSE,163,1.2,1.2,88,0.00,,,0.00,0.0,WeatherDisplay:10.37,2013-08-10 10:23:00,
2013-08-10 03:24:00,50.7,47.3,29.98,SSE,162,3.0,3.0,88,0.00,,,0.00,0.0,WeatherDisplay:10.37,2013-08-10 10:24:00,
2013-08-10 03:25:00,50.6,46.9,29.98,ESE,117,3.5,3.5,87,0.00,,,0.00,0.0,WeatherDisplay:10.37,2013-08-10 10:25:00,
2013-08-10 03:26:00,50.6,46.9,29.98,ESE,117,3.5,3.5,87,0.00,,,0.00,0.0,WeatherDisplay:10.37,2013-08-10 10:26:00,
2013-08-10 03:28:00,50.4,46.7,29.98,ESE,115,3.5,3.5,87,0.00,,,0.00,0.0,WeatherDisplay:10.37,2013-08-10 10:28:00,
2013-08-10 03:29:00,50.4,47.0,29.98,ESE,116,3.5,3.5,88,0.00,,,0.00,0.0,WeatherDisplay:10.37,2013-08-10 10:29:00,
2013-08-10 03:30:00,50.3,46.9,29.98,ESE,119,1.0,4.0,88,0.00,,,0.00,0.0,WeatherDisplay:10.37,2013-08-10 10:30:00,
2013-08-10 03:31:00,50.2,46.8,29.98,ESE,117,2.3,2.3,88,0.00,,,0.00,0.0,WeatherDisplay:10.37,2013-08-10 10:31:00,
2013-08-10 03:33:00,50.2,46.8,29.98,ESE,117,2.3,2.3,88,0.00,,,0.00,0.0,WeatherDisplay:10.37,2013-08-10 10:33:00,
2013-08-10 03:35:00,50.3,46.9,29.98,ESE,117,2.3,2.3,88,0.00,,,0.00,0.0,WeatherDisplay:10.37,2013-08-10 10:35:00,
2013-08-10 03:36:00,50.4,47.0,29.98,ESE,117,2.3,2.3,88,0.00,,,0.00,0.0,WeatherDisplay:10.37,2013-08-10 10:36:00,
2013-08-10 03:37:00,50.3,46.9,29.98,ESE,117,1.2,1.2,88,0.00,,,0.00,0.0,WeatherDisplay:10.37,2013-08-10 10:37:00,
2013-08-10 03:38:00,50.3,46.6,29.98,ESE,117,3.5,3.5,87,0.00,,,0.00,0.0,WeatherDisplay:10.37,2013-08-10 10:38:00,
2013-08-10 03:41:00,50.3,46.9,29.98,ESE,117,1.2,1.2,88,0.00,,,0.00,0.0,WeatherDisplay:10.37,2013-08-10 10:41:00,
2013-08-10 03:42:00,50.4,47.0,29.98,ESE,117,1.2,1.2,88,0.00,,,0.00,0.0,WeatherDisplay:10.37,2013-08-10 10:42:00,
2013-08-10 03:43:00,50.4,46.7,29.98,ESE,117,2.3,2.3,87,0.00,,,0.00,0.0,WeatherDisplay:10.37,2013-08-10 10:43:00,
2013-08-10 03:46:00,50.4,46.7,29.98,ESE,117,2.3,2.3,87,0.00,,,0.00,0.0,WeatherDisplay:10.37,2013-08-10 10:46:00,
2013-08-10 03:47:00,50.3,46.3,29.98,ESE,117,1.2,0.0,86,0.00,,,0.00,0.0,WeatherDisplay:10.37,2013-08-10 10:47:00,
2013-08-10 03:49:00,50.2,46.2,29.98,ESE,117,0.0,0.0,86,0.00,,,0.00,0.0,WeatherDisplay:10.37,2013-08-10 10:49:00,
2013-08-10 03:51:00,49.9,46.2,29.98,ESE,117,2.3,2.3,87,0.00,,,0.00,0.0,WeatherDisplay:10.37,2013-08-10 10:51:00,
2013-08-10 03:52:00,49.8,46.1,29.98,ESE,117,2.3,2.3,87,0.00,,,0.00,0.0,WeatherDisplay:10.37,2013-08-10 10:52:00,
2013-08-10 03:54:00,49.8,46.1,29.98,ESE,117,1.2,1.2,87,0.00,,,0.00,0.0,WeatherDisplay:10.37,2013-08-10 10:54:00,
2013-08-10 03:56:00,49.8,46.1,29.98,ESE,117,2.3,2.3,87,0.00,,,0.00,0.0,WeatherDisplay:10.37,2013-08-10 10:56:00,
2013-08-10 03:57:00,49.7,46.0,29.98,ESE,117,1.2,0.0,87,0.00,,,0.00,0.0,WeatherDisplay:10.37,2013-08-10 10:57:00,
2013-08-10 03:58:00,49.7,46.0,29.98,ESE,117,1.2,0.0,87,0.00,,,0.00,0.0,WeatherDisplay:10.37,2013-08-10 10:58:00,
2013-08-10 03:59:00,49.6,45.9,29.97,ESE,117,1.2,1.2,87,0.00,,,0.00,0.0,WeatherDisplay:10.37,2013-08-10 10:59:00,
2013-08-10 04:02:00,49.5,46.1,29.98,ESE,117,1.2,1.2,88,0.00,,,0.00,0.0,WeatherDisplay:10.37,2013-08-10 11:02:00,
2013-08-10 04:03:00,49.5,46.1,29.98,ESE,117,1.2,0.0,88,0.00,,,0.00,0.0,WeatherDisplay:10.37,2013-08-10 11:03:00,
2013-08-10 04:04:00,49.6,46.2,29.97,ESE,117,3.5,3.5,88,0.00,,,0.00,0.0,WeatherDisplay:10.37,2013-08-10 11:04:00,
2013-08-10 04:07:00,49.5,45.8,29.98,ESE,117,2.3,2.3,87,0.00,,,0.00,0.0,WeatherDisplay:10.37,2013-08-10 11:07:00,
2013-08-10 04:08:00,49.4,45.7,29.98,ESE,117,2.3,2.3,87,0.00,,,0.00,0.0,WeatherDisplay:10.37,2013-08-10 11:08:00,
2013-08-10 04:11:00,49.3,45.6,29.98,ESE,117,1.2,1.2,87,0.00,,,0.00,0.0,WeatherDisplay:10.37,2013-08-10 11:11:00,
2013-08-10 04:13:00,49.4,45.7,29.98,ESE,117,3.5,3.5,87,0.00,,,0.00,0.0,WeatherDisplay:10.37,2013-08-10 11:13:00,
2013-08-10 04:14:00,49.5,45.8,29.98,ESE,117,2.3,2.3,87,0.00,,,0.00,0.0,WeatherDisplay:10.37,2013-08-10 11:14:00,
2013-08-10 04:16:00,49.6,45.9,29.98,ESE,117,1.2,1.2,87,0.00,,,0.00,0.0,WeatherDisplay:10.37,2013-08-10 11:16:00,
2013-08-10 04:18:00,49.8,46.1,29.99,ESE,117,1.2,1.2,87,0.00,,,0.00,0.0,WeatherDisplay:10.37,2013-08-10 11:18:00,
2013-08-10 04:19:00,49.9,45.9,29.99,ESE,117,2.3,2.3,86,0.00,,,0.00,0.0,WeatherDisplay:10.37,2013-08-10 11:19:00,
2013-08-10 04:21:00,49.9,45.9,29.99,ESE,117,3.5,3.5,86,0.00,,,0.00,0.0,WeatherDisplay:10.37,2013-08-10 11:21:00,
2013-08-10 04:23:00,49.8,45.8,29.99,ESE,117,1.2,1.2,86,0.00,,,0.00,0.0,WeatherDisplay:10.37,2013-08-10 11:23:00,
2013-08-10 04:24:00,49.8,45.8,29.99,ESE,117,1.2,1.2,86,0.00,,,0.00,0.0,WeatherDisplay:10.37,2013-08-10 11:24:00,
2013-08-10 04:26:00,49.9,45.9,29.99,ESE,117,1.2,1.2,86,0.00,,,0.00,0.0,WeatherDisplay:10.37,2013-08-10 11:26:00,
2013-08-10 04:28:00,49.9,45.9,29.99,ESE,117,1.2,1.2,86,0.00,,,0.00,0.0,WeatherDisplay:10.37,2013-08-10 11:28:00,
2013-08-10 04:29:00,49.9,45.9,29.99,ESE,117,1.2,1.2,86,0.00,,,0.00,0.0,WeatherDisplay:10.37,2013-08-10 11:29:00,
2013-08-10 04:30:00,49.9,45.9,29.98,ESE,117,1.2,1.2,86,0.00,,,0.00,0.0,WeatherDisplay:10.37,2013-08-10 11:30:00,
2013-08-10 04:31:00,49.9,45.9,29.98,ESE,117,1.2,1.2,86,0.00,,,0.00,0.0,WeatherDisplay:10.37,2013-08-10 11:31:00,
2013-08-10 04:34:00,49.9,45.9,29.99,ESE,117,1.2,1.2,86,0.00,,,0.00,0.0,WeatherDisplay:10.37,2013-08-10 11:34:00,
2013-08-10 04:35:00,49.9,45.9,29.99,ESE,117,2.3,2.3,86,0.00,,,0.00,0.0,WeatherDisplay:10.37,2013-08-10 11:35:00,
2013-08-10 04:36:00,49.9,45.9,29.98,ESE,117,2.3,2.3,86,0.00,,,0.00,0.0,WeatherDisplay:10.37,2013-08-10 11:36:00,
2013-08-10 04:39:00,50.0,46.0,29.99,ESE,117,1.2,1.2,86,0.00,,,0.00,0.0,WeatherDisplay:10.37,2013-08-10 11:39:00,
2013-08-10 04:40:00,50.0,45.7,29.99,ESE,117,1.2,1.2,85,0.00,,,0.00,0.0,WeatherDisplay:10.37,2013-08-10 11:40:00,
2013-08-10 04:41:00,50.1,45.8,29.99,ESE,117,1.2,1.2,85,0.00,,,0.00,0.0,WeatherDisplay:10.37,2013-08-10 11:41:00,
2013-08-10 04:44:00,50.1,45.8,29.99,ESE,117,1.2,1.2,85,0.00,,,0.00,0.0,WeatherDisplay:10.37,2013-08-10 11:44:00,
2013-08-10 04:45:00,50.1,45.8,29.99,ESE,117,1.2,1.2,85,0.00,,,0.00,0.0,WeatherDisplay:10.37,2013-08-10 11:45:00,
2013-08-10 04:47:00,50.1,45.8,29.99,ESE,117,3.5,3.5,85,0.00,,,0.00,0.0,WeatherDisplay:10.37,2013-08-10 11:47:00,
2013-08-10 04:49:00,50.1,45.8,29.99,ESE,117,1.2,0.0,85,0.00,,,0.00,0.0,WeatherDisplay:10.37,2013-08-10 11:49:00,
2013-08-10 04:50:00,50.1,45.7,29.99,ESE,117,0.0,3.0,85,0.00,,,0.00,0.0,WeatherDisplay:10.37,2013-08-10 11:50:00,
2013-08-10 04:51:00,50.0,45.7,29.99,ESE,117,1.2,0.0,85,0.00,,,0.00,0.0,WeatherDisplay:10.37,2013-08-10 11:51:00,
2013-08-10 04:52:00,50.0,45.7,29.99,ESE,117,1.2,0.0,85,0.00,,,0.00,0.0,WeatherDisplay:10.37,2013-08-10 11:52:00,
2013-08-10 04:54:00,49.8,45.5,29.99,ESE,117,1.2,1.2,85,0.00,,,0.00,0.0,WeatherDisplay:10.37,2013-08-10 11:54:00,
2013-08-10 04:55:00,49.7,45.4,29.99,ESE,117,0.0,1.0,85,0.00,,,0.00,0.0,WeatherDisplay:10.37,2013-08-10 11:55:00,
2013-08-10 04:56:00,49.7,45.7,29.99,ESE,117,0.0,0.0,86,0.00,,,0.00,0.0,WeatherDisplay:10.37,2013-08-10 11:56:00,
2013-08-10 04:57:00,49.6,45.6,29.99,ESE,117,1.2,1.2,86,0.00,,,0.00,0.0,WeatherDisplay:10.37,2013-08-10 11:57:00,
2013-08-10 04:58:00,49.6,45.6,29.99,ESE,117,0.0,0.0,86,0.00,,,0.00,0.0,WeatherDisplay:10.37,2013-08-10 11:58:00,
2013-08-10 05:00:00,49.6,45.6,29.99,ESE,117,0.0,0.0,86,0.00,,,0.00,0.0,WeatherDisplay:10.37,2013-08-10 12:00:00,
2013-08-10 05:01:00,49.6,45.6,29.99,ESE,117,0.0,0.1,86,0.00,,,0.00,0.0,WeatherDisplay:10.37,2013-08-10 12:01:00,
2013-08-10 05:02:00,49.6,45.6,29.99,ESE,117,1.2,0.0,86,0.00,,,0.00,0.0,WeatherDisplay:10.37,2013-08-10 12:02:00,
2013-08-10 05:03:00,49.6,45.6,29.99,ESE,117,0.0,0.0,86,0.00,,,0.00,0.0,WeatherDisplay:10.37,2013-08-10 12:03:00,
2013-08-10 05:05:00,49.7,45.7,29.99,ESE,117,0.0,0.1,86,0.00,,,0.00,0.0,WeatherDisplay:10.37,2013-08-10 12:05:00,
2013-08-10 05:06:00,49.8,45.8,29.99,ESE,117,0.0,0.0,86,0.00,,,0.00,0.0,WeatherDisplay:10.37,2013-08-10 12:06:00,
2013-08-10 05:07:00,49.8,45.8,29.99,ESE,117,0.0,0.0,86,0.00,,,0.00,0.0,WeatherDisplay:10.37,2013-08-10 12:07:00,
2013-08-10 05:08:00,49.9,45.6,29.99,ESE,117,0.0,0.0,85,0.00,,,0.00,0.0,WeatherDisplay:10.37,2013-08-10 12:08:00,
2013-08-10 05:10:00,49.8,45.5,29.99,ESE,117,0.0,0.0,85,0.00,,,0.00,0.0,WeatherDisplay:10.37,2013-08-10 12:10:00,
2013-08-10 05:11:00,49.7,45.4,29.99,ESE,117,1.2,1.2,85,0.00,,,0.00,0.0,WeatherDisplay:10.37,2013-08-10 12:11:00,
2013-08-10 05:12:00,49.6,45.3,29.99,ESE,117,1.2,0.0,85,0.00,,,0.00,0.0,WeatherDisplay:10.37,2013-08-10 12:12:00,
2013-08-10 05:13:00,49.5,45.2,29.99,ESE,117,0.0,0.0,85,0.00,,,0.00,0.0,WeatherDisplay:10.37,2013-08-10 12:13:00,
2013-08-10 05:14:00,49.4,45.1,29.99,ESE,117,0.0,0.0,85,0.00,,,0.00,0.0,WeatherDisplay:10.37,2013-08-10 12:14:00,
2013-08-10 05:15:00,49.3,45.0,30.00,ESE,117,0.0,0.0,85,0.00,,,0.00,0.0,WeatherDisplay:10.37,2013-08-10 12:15:00,
2013-08-10 05:17:00,49.1,44.8,29.99,ESE,117,0.0,0.0,85,0.00,,,0.00,0.0,WeatherDisplay:10.37,2013-08-10 12:17:00,
2013-08-10 05:18:00,49.0,45.0,30.00,ESE,117,0.0,0.0,86,0.00,,,0.00,0.0,WeatherDisplay:10.37,2013-08-10 12:18:00,
2013-08-10 05:19:00,49.0,45.0,30.00,ESE,117,0.0,0.0,86,0.00,,,0.00,0.0,WeatherDisplay:10.37,2013-08-10 12:19:00,
2013-08-10 05:20:00,49.0,45.0,30.00,ESE,117,0.0,0.0,86,0.00,,,0.00,0.0,WeatherDisplay:10.37,2013-08-10 12:20:00,
2013-08-10 05:22:00,49.0,45.0,30.00,ESE,117,0.0,0.0,86,0.00,,,0.00,0.0,WeatherDisplay:10.37,2013-08-10 12:22:00,
2013-08-10 05:23:00,48.9,44.9,30.00,ESE,117,0.0,0.0,86,0.00,,,0.00,0.0,WeatherDisplay:10.37,2013-08-10 12:23:00,
2013-08-10 05:25:00,48.8,44.8,30.00,ESE,117,0.0,1.0,86,0.00,,,0.00,0.0,WeatherDisplay:10.37,2013-08-10 12:25:00,
2013-08-10 05:27:00,48.8,45.1,30.00,ESE,117,1.2,0.0,87,0.00,,,0.00,0.0,WeatherDisplay:10.37,2013-08-10 12:27:00,
2013-08-10 05:28:00,48.8,45.1,30.00,ESE,117,1.2,0.0,87,0.00,,,0.00,0.0,WeatherDisplay:10.37,2013-08-10 12:28:00,
2013-08-10 05:30:00,49.0,45.0,30.00,ESE,117,0.0,0.0,86,0.00,,,0.00,0.0,WeatherDisplay:10.37,2013-08-10 12:30:00,
2013-08-10 05:31:00,49.0,45.0,30.00,ESE,117,0.0,0.0,86,0.00,,,0.00,0.0,WeatherDisplay:10.37,2013-08-10 12:31:00,
2013-08-10 05:33:00,48.9,44.9,30.00,ESE,117,0.0,0.0,86,0.00,,,0.00,0.0,WeatherDisplay:10.37,2013-08-10 12:33:00,
2013-08-10 05:35:00,48.8,45.1,30.00,ESE,117,1.2,1.2,87,0.00,,,0.00,0.0,WeatherDisplay:10.37,2013-08-10 12:35:00,
2013-08-10 05:36:00,48.8,45.1,30.00,ESE,117,1.2,1.2,87,0.00,,,0.00,0.0,WeatherDisplay:10.37,2013-08-10 12:36:00,
2013-08-10 05:38:00,48.9,44.9,30.00,ESE,117,2.0,2.0,86,0.00,,,0.00,0.0,WeatherDisplay:10.37,2013-08-10 12:38:00,
2013-08-10 05:39:00,49.0,45.0,30.00,ESE,117,2.3,2.3,86,0.00,,,0.00,0.0,WeatherDisplay:10.37,2013-08-10 12:39:00,
2013-08-10 05:41:00,48.9,44.9,30.00,ESE,117,2.3,0.0,86,0.00,,,0.00,0.0,WeatherDisplay:10.37,2013-08-10 12:41:00,
2013-08-10 05:43:00,48.6,44.3,30.00,ESE,117,1.2,0.0,85,0.00,,,0.00,0.0,WeatherDisplay:10.37,2013-08-10 12:43:00,
2013-08-10 05:44:00,48.4,44.1,30.00,ESE,117,1.2,1.2,85,0.00,,,0.00,0.0,WeatherDisplay:10.37,2013-08-10 12:44:00,
2013-08-10 05:46:00,48.3,44.3,30.00,ESE,117,2.3,2.3,86,0.00,,,0.00,0.0,WeatherDisplay:10.37,2013-08-10 12:46:00,
2013-08-10 05:47:00,48.3,44.3,30.00,ESE,117,2.3,2.3,86,0.00,,,0.00,0.0,WeatherDisplay:10.37,2013-08-10 12:47:00,
2013-08-10 05:48:00,48.3,44.3,30.00,ESE,117,2.3,2.3,86,0.00,,,0.00,0.0,WeatherDisplay:10.37,2013-08-10 12:48:00,
2013-08-10 05:49:00,48.3,44.3,30.00,ESE,117,2.3,2.3,86,0.00,,,0.00,0.0,WeatherDisplay:10.37,2013-08-10 12:49:00,
2013-08-10 05:50:00,48.3,44.3,30.00,ESE,117,2.3,2.3,86,0.00,,,0.00,0.0,WeatherDisplay:10.37,2013-08-10 12:50:00,
2013-08-10 05:51:00,48.3,44.6,30.00,ESE,117,2.3,2.3,87,0.00,,,0.00,0.0,WeatherDisplay:10.37,2013-08-10 12:51:00,
2013-08-10 05:53:00,48.3,44.3,30.00,ESE,117,1.2,1.2,86,0.00,,,0.00,0.0,WeatherDisplay:10.37,2013-08-10 12:53:00,
2013-08-10 05:54:00,48.2,44.5,30.00,ESE,117,2.3,2.3,87,0.00,,,0.00,0.0,WeatherDisplay:10.37,2013-08-10 12:54:00,
2013-08-10 05:55:00,48.2,44.5,30.00,ESE,117,1.2,0.0,87,0.00,,,0.00,0.0,WeatherDisplay:10.37,2013-08-10 12:55:00,
2013-08-10 05:56:00,48.2,44.5,30.00,ESE,117,1.2,1.2,87,0.00,,,0.00,0.0,WeatherDisplay:10.37,2013-08-10 12:56:00,
2013-08-10 05:57:00,48.2,44.5,30.00,ESE,117,1.2,0.0,87,0.00,,,0.00,0.0,WeatherDisplay:10.37,2013-08-10 12:57:00,
2013-08-10 05:58:00,48.2,44.5,30.00,ESE,117,1.2,0.0,87,0.00,,,0.00,0.0,WeatherDisplay:10.37,2013-08-10 12:58:00,
2013-08-10 05:59:00,48.2,44.5,30.00,ESE,117,0.0,0.0,87,0.00,,,0.00,0.0,WeatherDisplay:10.37,2013-08-10 12:59:00,
2013-08-10 06:00:00,48.2,44.2,30.00,ESE,117,1.2,1.2,86,0.00,,,0.00,0.0,WeatherDisplay:10.37,2013-08-10 13:00:00,
2013-08-10 06:01:00,48.2,44.2,30.00,ESE,117,0.0,0.0,86,0.00,,,0.00,0.0,WeatherDisplay:10.37,2013-08-10 13:01:00,
2013-08-10 06:02:00,48.2,44.2,30.00,ESE,117,0.0,0.0,86,0.00,,,0.00,0.0,WeatherDisplay:10.37,2013-08-10 13:02:00,
2013-08-10 06:04:00,48.1,44.1,30.00,ESE,117,0.0,0.0,86,0.00,,,0.00,0.0,WeatherDisplay:10.37,2013-08-10 13:04:00,
2013-08-10 06:05:00,47.9,43.9,29.99,ESE,117,0.0,0.0,86,0.00,,,0.00,0.0,WeatherDisplay:10.37,2013-08-10 13:05:00,
2013-08-10 06:06:00,47.8,44.1,29.99,ESE,117,0.0,0.0,87,0.00,BKN,,0.00,6.0,WeatherDisplay:10.37,2013-08-10 13:06:00,
2013-08-10 06:07:00,47.8,44.1,29.99,ESE,117,0.0,0.0,87,0.00,BKN,,0.00,6.0,WeatherDisplay:10.37,2013-08-10 13:07:00,
2013-08-10 06:09:00,47.7,44.0,29.99,ESE,117,0.0,0.0,87,0.00,BKN,,0.00,6.0,WeatherDisplay:10.37,2013-08-10 13:09:00,
2013-08-10 06:10:00,47.7,44.0,29.99,ESE,117,1.0,1.0,87,0.00,BKN,,0.00,6.0,WeatherDisplay:10.37,2013-08-10 13:10:00,
2013-08-10 06:11:00,47.7,44.0,29.99,ESE,117,1.2,1.2,87,0.00,BKN,,0.00,6.0,WeatherDisplay:10.37,2013-08-10 13:11:00,
2013-08-10 06:12:00,47.9,44.5,29.99,ESE,117,1.2,1.2,88,0.00,BKN,,0.00,6.0,WeatherDisplay:10.37,2013-08-10 13:12:00,
2013-08-10 06:13:00,47.9,44.2,29.99,ESE,117,2.0,2.0,87,0.00,BKN,,0.00,8.4,WeatherDisplay:10.37,2013-08-10 13:13:00,
2013-08-10 06:14:00,47.9,44.2,29.99,ESE,117,2.3,2.3,87,0.00,BKN,,0.00,8.4,WeatherDisplay:10.37,2013-08-10 13:14:00,
2013-08-10 06:15:00,47.9,44.2,29.99,ESE,117,2.3,2.3,87,0.00,BKN,,0.00,8.4,WeatherDisplay:10.37,2013-08-10 13:15:00,
2013-08-10 06:16:00,47.9,44.2,29.99,ESE,117,2.3,2.3,87,0.00,BKN,,0.00,8.4,WeatherDisplay:10.37,2013-08-10 13:16:00,
2013-08-10 06:18:00,47.8,44.1,30.00,ESE,117,3.5,3.5,87,0.00,BKN,,0.00,8.4,WeatherDisplay:10.37,2013-08-10 13:18:00,
2013-08-10 06:19:00,47.6,43.9,30.00,ESE,117,2.3,2.3,87,0.00,BKN,,0.00,8.4,WeatherDisplay:10.37,2013-08-10 13:19:00,
2013-08-10 06:21:00,47.6,43.9,30.00,ESE,117,4.0,4.0,87,0.00,BKN,,0.00,8.4,WeatherDisplay:10.37,2013-08-10 13:21:00,
2013-08-10 06:23:00,47.6,44.2,30.00,ESE,117,3.5,3.5,88,0.00,BKN,,0.00,10.8,WeatherDisplay:10.37,2013-08-10 13:23:00,
2013-08-10 06:24:00,47.6,44.2,30.00,ESE,117,2.3,2.3,88,0.00,BKN,,0.00,10.8,WeatherDisplay:10.37,2013-08-10 13:24:00,
2013-08-10 06:25:00,47.7,44.3,30.00,ESE,117,2.3,2.3,88,0.00,BKN,,0.00,10.8,WeatherDisplay:10.37,2013-08-10 13:25:00,
2013-08-10 06:26:00,47.7,44.3,30.00,ESE,117,1.2,1.2,88,0.00,BKN,,0.00,13.2,WeatherDisplay:10.37,2013-08-10 13:26:00,
2013-08-10 06:27:00,47.7,44.3,30.00,ESE,117,1.2,1.2,88,0.00,BKN,,0.00,13.2,WeatherDisplay:10.37,2013-08-10 13:27:00,
2013-08-10 06:28:00,47.8,44.1,30.00,ESE,117,2.0,2.0,87,0.00,BKN,,0.00,13.2,WeatherDisplay:10.37,2013-08-10 13:28:00,
2013-08-10 06:29:00,47.8,44.1,30.00,ESE,117,2.3,2.3,87,0.00,BKN,,0.00,13.2,WeatherDisplay:10.37,2013-08-10 13:29:00,
2013-08-10 06:32:00,48.1,44.4,30.00,ESE,117,3.5,3.5,87,0.00,BKN,,0.00,13.2,WeatherDisplay:10.37,2013-08-10 13:32:00,
2013-08-10 06:33:00,48.2,44.5,30.00,ESE,117,3.5,3.5,87,0.00,BKN,,0.00,14.4,WeatherDisplay:10.37,2013-08-10 13:33:00,
2013-08-10 06:34:00,48.3,44.6,30.00,ESE,117,3.5,3.5,87,0.00,BKN,,0.00,14.4,WeatherDisplay:10.37,2013-08-10 13:34:00,
2013-08-10 06:37:00,48.5,44.5,30.00,ESE,117,1.2,0.0,86,0.00,BKN,,0.00,14.4,WeatherDisplay:10.37,2013-08-10 13:37:00,
2013-08-10 06:38:00,48.4,44.4,30.00,ESE,117,0.0,0.0,86,0.00,BKN,,0.00,14.4,WeatherDisplay:10.37,2013-08-10 13:38:00,
2013-08-10 06:39:00,48.3,44.3,30.00,ESE,117,1.2,1.2,86,0.00,BKN,,0.00,16.8,WeatherDisplay:10.37,2013-08-10 13:39:00,
2013-08-10 06:43:00,48.2,44.5,30.00,ESE,117,1.2,1.2,87,0.00,BKN,,0.00,19.2,WeatherDisplay:10.37,2013-08-10 13:43:00,
2013-08-10 06:44:00,48.2,44.5,30.00,ESE,117,1.2,1.2,87,0.00,BKN,,0.00,21.6,WeatherDisplay:10.37,2013-08-10 13:44:00,
2013-08-10 06:48:00,48.2,44.5,30.00,ESE,117,0.0,0.1,87,0.00,BKN,,0.00,30.0,WeatherDisplay:10.37,2013-08-10 13:48:00,
2013-08-10 06:49:00,48.2,44.5,30.00,ESE,117,1.2,1.2,87,0.00,BKN,,0.00,30.0,WeatherDisplay:10.37,2013-08-10 13:49:00,
2013-08-10 06:50:00,48.2,44.5,30.00,ESE,117,1.2,1.2,87,0.00,BKN,,0.00,30.0,WeatherDisplay:10.37,2013-08-10 13:50:00,
2013-08-10 06:53:00,48.2,44.5,30.00,ESE,117,1.2,1.2,87,0.00,BKN,,0.00,38.4,WeatherDisplay:10.37,2013-08-10 13:53:00,
2013-08-10 06:54:00,48.2,44.5,30.00,ESE,117,1.2,1.2,87,0.00,BKN,,0.00,39.6,WeatherDisplay:10.37,2013-08-10 13:54:00,
2013-08-10 06:55:00,48.2,44.5,30.00,ESE,117,1.2,1.2,87,0.00,BKN,,0.00,36.0,WeatherDisplay:10.37,2013-08-10 13:55:00,
2013-08-10 06:58:00,48.4,44.7,30.00,ESE,117,0.0,0.0,87,0.00,BKN,,0.00,38.4,WeatherDisplay:10.37,2013-08-10 13:58:00,
2013-08-10 06:59:00,48.5,44.8,30.00,ESE,117,0.0,0.0,87,0.00,BKN,,0.00,39.6,WeatherDisplay:10.37,2013-08-10 13:59:00,
2013-08-10 07:00:00,48.5,44.8,30.00,ESE,117,0.0,0.0,87,0.00,BKN,,0.00,39.6,WeatherDisplay:10.37,2013-08-10 14:00:00,
2013-08-10 07:04:00,48.5,44.5,30.01,ESE,117,2.3,2.3,86,0.00,BKN,,0.00,55.2,WeatherDisplay:10.37,2013-08-10 14:04:00,
2013-08-10 07:05:00,48.5,44.5,30.01,ESE,117,1.2,1.2,86,0.00,BKN,,0.00,61.2,WeatherDisplay:10.37,2013-08-10 14:05:00,
2013-08-10 07:06:00,48.5,44.8,30.01,ESE,117,2.3,2.3,87,0.00,BKN,,0.00,55.2,WeatherDisplay:10.37,2013-08-10 14:06:00,
2013-08-10 07:07:00,48.5,44.8,30.01,ESE,117,1.2,0.0,87,0.00,BKN,,0.00,52.8,WeatherDisplay:10.37,2013-08-10 14:07:00,
2013-08-10 07:09:00,48.6,44.6,30.01,ESE,117,1.2,1.2,86,0.00,BKN,,0.00,52.8,WeatherDisplay:10.37,2013-08-10 14:09:00,
2013-08-10 07:10:00,48.6,44.6,30.01,ESE,117,0.0,0.0,86,0.00,BKN,,0.00,55.2,WeatherDisplay:10.37,2013-08-10 14:10:00,
2013-08-10 07:11:00,48.7,44.7,30.01,ESE,117,1.2,0.0,86,0.00,BKN,,0.00,56.4,WeatherDisplay:10.37,2013-08-10 14:11:00,
2013-08-10 07:12:00,48.8,44.8,30.02,ESE,117,1.2,1.2,86,0.00,BKN,,0.00,56.4,WeatherDisplay:10.37,2013-08-10 14:12:00,
2013-08-10 07:14:00,49.1,45.1,30.02,ESE,117,3.5,3.5,86,0.00,BKN,,0.00,56.4,WeatherDisplay:10.37,2013-08-10 14:14:00,
2013-08-10 07:15:00,49.1,45.1,30.02,ESE,117,3.5,3.5,86,0.00,BKN,,0.00,61.2,WeatherDisplay:10.37,2013-08-10 14:15:00,
2013-08-10 07:16:00,49.2,45.2,30.02,ESE,117,3.5,3.5,86,0.00,BKN,,0.00,61.2,WeatherDisplay:10.37,2013-08-10 14:16:00,
2013-08-10 07:18:00,49.5,45.5,30.02,ESE,117,2.3,2.3,86,0.00,BKN,,0.00,58.8,WeatherDisplay:10.37,2013-08-10 14:18:00,
2013-08-10 07:20:00,49.9,45.6,30.02,ESE,117,1.2,0.0,85,0.00,BKN,,0.00,52.8,WeatherDisplay:10.37,2013-08-10 14:20:00,
2013-08-10 07:21:00,50.1,45.8,30.02,ESE,117,2.0,2.0,85,0.00,BKN,,0.00,52.8,WeatherDisplay:10.37,2013-08-10 14:21:00,
2013-08-10 07:22:00,50.3,46.0,30.02,ESE,117,2.3,2.3,85,0.00,BKN,,0.00,55.2,WeatherDisplay:10.37,2013-08-10 14:22:00,
2013-08-10 07:23:00,50.4,46.1,30.02,ESE,117,2.3,2.3,85,0.00,BKN,,0.00,56.4,WeatherDisplay:10.37,2013-08-10 14:23:00,
2013-08-10 07:25:00,50.7,46.0,30.02,ESE,117,2.3,2.3,84,0.00,BKN,,0.00,63.6,WeatherDisplay:10.37,2013-08-10 14:25:00,
2013-08-10 07:26:00,50.7,46.0,30.02,ESE,117,2.3,2.3,84,0.00,BKN,,0.00,64.8,WeatherDisplay:10.37,2013-08-10 14:26:00,
2013-08-10 07:28:00,50.9,45.9,30.02,ESE,117,2.3,2.3,83,0.00,BKN,,0.00,72.0,WeatherDisplay:10.37,2013-08-10 14:28:00,
2013-08-10 07:30:00,51.1,46.1,30.02,ESE,117,1.2,1.2,83,0.00,BKN,,0.00,75.6,WeatherDisplay:10.37,2013-08-10 14:30:00,
2013-08-10 07:31:00,51.2,46.2,30.02,ESE,117,1.2,1.2,83,0.00,BKN,,0.00,78.0,WeatherDisplay:10.37,2013-08-10 14:31:00,
2013-08-10 07:32:00,51.3,46.3,30.02,ESE,117,2.3,2.3,83,0.00,BKN,,0.00,78.0,WeatherDisplay:10.37,2013-08-10 14:32:00,
2013-08-10 07:33:00,51.4,46.4,30.02,ESE,117,2.3,2.3,83,0.00,BKN,,0.00,78.0,WeatherDisplay:10.37,2013-08-10 14:33:00,
2013-08-10 07:34:00,51.4,46.4,30.02,ESE,117,2.3,2.3,83,0.00,BKN,,0.00,78.0,WeatherDisplay:10.37,2013-08-10 14:34:00,
2013-08-10 07:35:00,51.5,46.5,30.02,ESE,117,2.3,2.3,83,0.00,BKN,,0.00,78.0,WeatherDisplay:10.37,2013-08-10 14:35:00,
2013-08-10 07:37:00,51.5,46.5,30.02,ESE,117,1.2,1.2,83,0.00,BKN,,0.00,78.0,WeatherDisplay:10.37,2013-08-10 14:37:00,
2013-08-10 07:38:00,51.5,46.5,30.02,ESE,117,1.2,1.2,83,0.00,BKN,,0.00,78.0,WeatherDisplay:10.37,2013-08-10 14:38:00,
2013-08-10 07:39:00,51.6,46.6,30.02,ESE,117,1.2,0.0,83,0.00,BKN,,0.00,78.0,WeatherDisplay:10.37,2013-08-10 14:39:00,
2013-08-10 07:41:00,51.9,46.9,30.02,ESE,117,2.3,2.3,83,0.00,BKN,,0.00,80.4,WeatherDisplay:10.37,2013-08-10 14:41:00,
2013-08-10 07:42:00,52.0,46.7,30.02,ESE,117,2.3,2.3,82,0.00,BKN,,0.00,80.4,WeatherDisplay:10.37,2013-08-10 14:42:00,
2013-08-10 07:43:00,52.1,46.8,30.02,ESE,117,2.3,2.3,82,0.00,BKN,,0.00,78.0,WeatherDisplay:10.37,2013-08-10 14:43:00,
2013-08-10 07:44:00,52.2,46.9,30.02,ESE,117,2.3,2.3,82,0.00,BKN,,0.00,75.6,WeatherDisplay:10.37,2013-08-10 14:44:00,
2013-08-10 07:45:00,52.3,47.0,30.02,ESE,117,1.0,4.0,82,0.00,BKN,,0.00,72.0,WeatherDisplay:10.37,2013-08-10 14:45:00,
2013-08-10 07:46:00,52.4,47.1,30.03,ESE,117,3.5,3.5,82,0.00,BKN,,0.00,69.6,WeatherDisplay:10.37,2013-08-10 14:46:00,
2013-08-10 07:47:00,52.4,46.7,30.03,ESE,117,3.5,3.5,81,0.00,BKN,,0.00,67.2,WeatherDisplay:10.37,2013-08-10 14:47:00,
2013-08-10 07:48:00,52.4,46.7,30.03,ESE,117,3.5,3.5,81,0.00,BKN,,0.00,67.2,WeatherDisplay:10.37,2013-08-10 14:48:00,
2013-08-10 07:49:00,52.4,46.7,30.03,ESE,112,6.9,6.9,81,0.00,BKN,,0.00,63.6,WeatherDisplay:10.37,2013-08-10 14:49:00,
2013-08-10 07:50:00,52.4,46.7,30.03,ESE,116,2.0,7.0,81,0.00,BKN,,0.00,63.6,WeatherDisplay:10.37,2013-08-10 14:50:00,
2013-08-10 07:51:00,52.4,46.7,30.03,ESE,113,4.6,4.6,81,0.00,BKN,,0.00,63.6,WeatherDisplay:10.37,2013-08-10 14:51:00,
2013-08-10 07:52:00,52.4,46.7,30.03,ESE,113,3.5,3.5,81,0.00,BKN,,0.00,64.8,WeatherDisplay:10.37,2013-08-10 14:52:00,
2013-08-10 07:54:00,52.4,46.7,30.03,ESE,119,4.6,4.6,81,0.00,BKN,,0.00,74.4,WeatherDisplay:10.37,2013-08-10 14:54:00,
2013-08-10 07:55:00,52.4,46.7,30.03,ESE,119,3.5,3.5,81,0.00,BKN,,0.00,80.4,WeatherDisplay:10.37,2013-08-10 14:55:00,
2013-08-10 07:56:00,52.4,46.7,30.03,ESE,121,3.5,3.5,81,0.00,BKN,,0.00,86.4,WeatherDisplay:10.37,2013-08-10 14:56:00,
2013-08-10 07:57:00,52.4,46.7,30.03,ESE,122,3.5,3.5,81,0.00,BKN,,0.00,94.8,WeatherDisplay:10.37,2013-08-10 14:57:00,
2013-08-10 07:58:00,52.5,46.8,30.03,ESE,122,3.5,3.5,81,0.00,BKN,,0.00,109.2,WeatherDisplay:10.37,2013-08-10 14:58:00,
2013-08-10 07:59:00,52.6,46.9,30.03,ESE,122,3.5,3.5,81,0.00,BKN,,0.00,116.4,WeatherDisplay:10.37,2013-08-10 14:59:00,
2013-08-10 08:00:00,52.7,47.0,30.03,ESE,122,3.5,3.5,81,0.00,BKN,,0.00,122.4,WeatherDisplay:10.37,2013-08-10 15:00:00,
2013-08-10 08:01:00,52.7,47.0,30.03,SE,128,2.3,3.2,81,0.00,BKN,,0.00,126.0,WeatherDisplay:10.37,2013-08-10 15:01:00,
2013-08-10 08:02:00,52.7,47.0,30.03,SE,131,6.9,6.9,81,0.00,BKN,,0.00,133.2,WeatherDisplay:10.37,2013-08-10 15:02:00,
2013-08-10 08:04:00,53.0,47.3,30.03,SE,129,3.5,3.5,81,0.00,BKN,,0.00,141.6,WeatherDisplay:10.37,2013-08-10 15:04:00,
2013-08-10 08:05:00,53.0,47.4,30.03,SE,127,1.0,7.0,81,0.00,BKN,,0.00,144.0,WeatherDisplay:10.37,2013-08-10 15:05:00,
2013-08-10 08:07:00,53.3,47.3,30.03,SE,128,6.9,6.9,80,0.00,BKN,,0.00,144.0,WeatherDisplay:10.37,2013-08-10 15:07:00,
2013-08-10 08:09:00,53.6,47.6,30.03,SE,129,3.5,3.5,80,0.00,BKN,,0.00,139.2,WeatherDisplay:10.37,2013-08-10 15:09:00,
2013-08-10 08:12:00,53.6,47.2,30.02,SE,146,9.2,9.2,79,0.00,BKN,,0.00,133.2,WeatherDisplay:10.37,2013-08-10 15:12:00,
2013-08-10 08:14:00,53.7,47.3,30.02,SE,129,4.6,4.6,79,0.00,BKN,,0.00,128.4,WeatherDisplay:10.37,2013-08-10 15:14:00,
2013-08-10 08:15:00,53.7,47.3,30.02,SE,129,4.6,4.6,79,0.00,BKN,,0.00,128.4,WeatherDisplay:10.37,2013-08-10 15:15:00,
2013-08-10 08:17:00,53.5,47.1,30.02,SE,136,3.5,3.5,79,0.00,BKN,,0.00,124.8,WeatherDisplay:10.37,2013-08-10 15:17:00,
2013-08-10 08:18:00,53.5,47.1,30.02,SE,139,5.8,5.8,79,0.00,BKN,,0.00,126.0,WeatherDisplay:10.37,2013-08-10 15:18:00,
2013-08-10 08:20:00,53.4,47.0,30.02,SE,146,4.0,4.0,79,0.00,BKN,,0.00,130.8,WeatherDisplay:10.37,2013-08-10 15:20:00,
2013-08-10 08:22:00,53.4,47.0,30.02,SE,136,2.3,2.3,79,0.00,BKN,,0.00,141.6,WeatherDisplay:10.37,2013-08-10 15:22:00,
2013-08-10 08:23:00,53.4,47.0,30.02,SE,136,2.3,2.3,79,0.00,BKN,,0.00,144.0,WeatherDisplay:10.37,2013-08-10 15:23:00,
2013-08-10 08:25:00,53.5,47.1,30.01,SE,137,3.5,3.5,79,0.00,BKN,,0.00,147.6,WeatherDisplay:10.37,2013-08-10 15:25:00,
2013-08-10 08:28:00,53.6,47.2,30.02,SSE,156,3.5,3.5,79,0.00,BKN,,0.00,150.0,WeatherDisplay:10.37,2013-08-10 15:28:00,
2013-08-10 08:29:00,53.7,47.3,30.01,SSE,148,2.3,2.3,79,0.00,BKN,,0.00,147.6,WeatherDisplay:10.37,2013-08-10 15:29:00,
2013-08-10 08:30:00,53.7,47.3,30.01,SSE,168,3.5,3.5,79,0.00,BKN,,0.00,147.6,WeatherDisplay:10.37,2013-08-10 15:30:00,
2013-08-10 08:31:00,53.6,47.2,30.01,South,170,3.5,3.5,79,0.00,BKN,,0.00,147.6,WeatherDisplay:10.37,2013-08-10 15:31:00,
2013-08-10 08:33:00,53.6,47.2,30.01,SSE,167,3.0,3.0,79,0.00,BKN,,0.00,316.8,WeatherDisplay:10.37,2013-08-10 15:33:00,
2013-08-10 08:34:00,53.8,47.4,30.01,South,177,3.5,3.5,79,0.00,SCT,,0.00,459.6,WeatherDisplay:10.37,2013-08-10 15:34:00,
2013-08-10 08:35:00,54.0,47.6,30.02,SSE,156,3.5,3.5,79,0.00,SCT,,0.00,451.2,WeatherDisplay:10.37,2013-08-10 15:35:00,
2013-08-10 08:36:00,54.2,47.8,30.02,SE,146,4.0,4.0,79,0.00,SCT,,0.00,459.6,WeatherDisplay:10.37,2013-08-10 15:36:00,
2013-08-10 08:38:00,54.8,48.1,30.02,ESE,115,5.8,5.8,78,0.00,FEW,,0.00,483.6,WeatherDisplay:10.37,2013-08-10 15:38:00,
2013-08-10 08:43:00,56.0,48.5,30.02,South,178,10.4,10.4,76,0.00,CLR,,0.00,396.0,WeatherDisplay:10.37,2013-08-10 15:43:00,
2013-08-10 08:44:00,56.2,48.4,30.02,SE,130,3.5,3.5,75,0.00,CLR,,0.00,396.0,WeatherDisplay:10.37,2013-08-10 15:44:00,
2013-08-10 08:45:00,56.5,47.9,30.02,SE,133,2.0,8.0,73,0.00,OVC,,0.00,205.2,WeatherDisplay:10.37,2013-08-10 15:45:00,
2013-08-10 08:50:00,56.3,48.1,30.02,SE,134,2.0,6.0,74,0.00,OVC,,0.00,175.2,WeatherDisplay:10.37,2013-08-10 15:50:00,
2013-08-10 08:55:00,56.4,48.6,30.02,SSE,149,1.0,3.0,75,0.00,OVC,,0.00,243.6,WeatherDisplay:10.37,2013-08-10 15:55:00,
2013-08-10 09:00:00,56.9,48.7,30.03,SSE,150,0.0,3.0,74,0.00,OVC,,0.00,301.2,WeatherDisplay:10.37,2013-08-10 16:00:00,
2013-08-10 09:05:00,57.7,48.7,30.03,SE,144,1.0,3.0,72,0.00,OVC,,0.00,238.8,WeatherDisplay:10.37,2013-08-10 16:05:00,
2013-08-10 09:10:00,57.9,48.2,30.03,SE,140,1.0,4.0,70,0.00,OVC,,0.00,270.0,WeatherDisplay:10.37,2013-08-10 16:10:00,
2013-08-10 09:15:00,58.4,48.7,30.02,SSE,162,0.0,3.0,70,0.00,OVC,,0.00,301.2,WeatherDisplay:10.37,2013-08-10 16:15:00,
2013-08-10 09:20:00,58.7,48.9,30.02,South,176,0.0,2.0,70,0.00,OVC,,0.00,265.2,WeatherDisplay:10.37,2013-08-10 16:20:00,
2013-08-10 09:25:00,58.4,48.7,30.02,South,169,0.0,1.0,70,0.00,OVC,,0.00,276.0,WeatherDisplay:10.37,2013-08-10 16:25:00,
2013-08-10 09:30:00,59.4,49.2,30.02,SSE,158,0.0,1.0,69,0.00,OVC,,0.00,274.8,WeatherDisplay:10.37,2013-08-10 16:30:00,
2013-08-10 09:35:00,59.3,48.7,30.02,SSE,158,0.0,2.0,68,0.00,OVC,,0.00,400.8,WeatherDisplay:10.37,2013-08-10 16:35:00,
2013-08-10 09:40:00,61.2,50.2,30.02,SSE,154,1.0,5.0,67,0.00,OVC,,0.00,470.4,WeatherDisplay:10.37,2013-08-10 16:40:00,
2013-08-10 09:45:00,61.4,49.9,30.02,SE,138,2.0,5.0,66,0.00,OVC,,0.00,565.2,WeatherDisplay:10.37,2013-08-10 16:45:00,
2013-08-10 09:50:00,62.4,50.1,30.02,SE,126,1.0,4.0,64,0.00,OVC,,0.00,522.0,WeatherDisplay:10.37,2013-08-10 16:50:00,
2013-08-10 09:55:00,63.3,50.1,30.02,SE,124,3.0,7.0,62,0.00,OVC,,0.00,345.6,WeatherDisplay:10.37,2013-08-10 16:55:00,
2013-08-10 10:30:00,64.2,49.1,30.02,ESE,111,1.0,5.0,58,0.00,OVC,,0.00,373.2,WeatherDisplay:10.37,2013-08-10 17:30:00,
2013-08-10 10:35:00,66.0,50.3,30.02,ESE,112,0.0,7.0,57,0.00,OVC,,0.00,776.4,WeatherDisplay:10.37,2013-08-10 17:35:00,
2013-08-10 10:40:00,65.3,49.7,30.01,ESE,112,0.0,1.0,57,0.00,OVC,,0.00,345.6,WeatherDisplay:10.37,2013-08-10 17:40:00,
2013-08-10 10:50:00,64.9,50.2,30.02,ESE,112,0.0,3.0,59,0.00,OVC,,0.00,280.8,WeatherDisplay:10.37,2013-08-10 17:50:00,
2013-08-10 10:55:00,64.0,49.8,30.02,ESE,118,0.0,2.0,60,0.00,OVC,,0.00,345.6,WeatherDisplay:10.37,2013-08-10 17:55:00,
2013-08-10 11:00:00,63.9,50.2,30.01,SE,135,1.0,3.0,61,0.00,OVC,,0.00,715.2,WeatherDisplay:10.37,2013-08-10 18:00:00,
2013-08-10 11:05:00,65.1,50.0,30.01,SE,145,1.0,2.0,58,0.00,OVC,,0.00,1040.4,WeatherDisplay:10.37,2013-08-10 18:05:00,
2013-08-10 11:15:00,68.2,49.9,30.01,NNW,338,1.0,3.0,52,0.00,OVC,,0.00,968.4,WeatherDisplay:10.37,2013-08-10 18:15:00,
2013-08-10 11:20:00,67.9,49.6,30.00,NNW,338,2.0,3.0,52,0.00,OVC,,0.00,292.8,WeatherDisplay:10.37,2013-08-10 18:20:00,
2013-08-10 11:40:00,66.9,49.2,30.00,NNW,333,1.0,5.0,53,0.00,OVC,,0.00,248.4,WeatherDisplay:10.37,2013-08-10 18:40:00,
2013-08-10 11:45:00,67.1,48.9,30.01,NNW,344,1.0,3.0,52,0.00,OVC,,0.00,192.0,WeatherDisplay:10.37,2013-08-10 18:45:00,
2013-08-10 11:50:00,66.6,48.9,30.00,NNW,330,5.0,6.0,53,0.00,OVC,,0.00,309.6,WeatherDisplay:10.37,2013-08-10 18:50:00,
2013-08-10 11:55:00,69.4,49.9,30.00,NW,316,2.0,7.0,50,0.00,OVC,,0.00,1058.4,WeatherDisplay:10.37,2013-08-10 18:55:00,
2013-08-10 12:15:00,68.8,48.9,30.01,NNW,334,1.0,6.0,49,0.00,OVC,,0.00,637.2,WeatherDisplay:10.37,2013-08-10 19:15:00,
2013-08-10 12:20:00,69.4,48.9,30.01,North,0,1.0,4.0,48,0.00,OVC,,0.00,529.2,WeatherDisplay:10.37,2013-08-10 19:20:00,
2013-08-10 12:25:00,70.5,49.9,30.01,North,350,0.0,3.0,48,0.00,OVC,,0.00,475.2,WeatherDisplay:10.37,2013-08-10 19:25:00,
2013-08-10 12:35:00,72.9,49.1,30.02,ENE,78,5.0,7.0,43,0.00,OVC,,0.00,272.4,WeatherDisplay:10.37,2013-08-10 19:35:00,
2013-08-10 12:40:00,72.8,49.0,30.01,East,91,1.0,3.0,43,0.00,OVC,,0.00,453.6,WeatherDisplay:10.37,2013-08-10 19:40:00,
2013-08-10 12:50:00,69.4,47.7,29.99,North,3,3.0,8.0,46,0.00,OVC,,0.00,422.4,WeatherDisplay:10.37,2013-08-10 19:50:00,
2013-08-10 12:55:00,69.4,48.3,30.00,North,354,3.0,8.0,47,0.00,OVC,,0.00,567.6,WeatherDisplay:10.37,2013-08-10 19:55:00,
2013-08-10 13:00:00,71.1,48.7,30.00,NNW,347,1.0,5.0,45,0.00,OVC,,0.00,693.6,WeatherDisplay:10.37,2013-08-10 20:00:00,
2013-08-10 13:05:00,72.2,49.1,30.00,North,355,3.0,5.0,44,0.00,OVC,,0.00,512.4,WeatherDisplay:10.37,2013-08-10 20:05:00,
2013-08-10 13:15:00,72.5,48.7,30.01,North,10,2.0,8.0,43,0.00,OVC,,0.00,954.0,WeatherDisplay:10.37,2013-08-10 20:15:00,
2013-08-10 13:20:00,72.3,48.5,30.01,North,359,3.0,7.0,43,0.00,OVC,,0.00,706.8,WeatherDisplay:10.37,2013-08-10 20:20:00,
2013-08-10 13:25:00,72.7,50.7,30.01,North,354,3.0,6.0,46,0.00,OVC,,0.00,712.8,WeatherDisplay:10.37,2013-08-10 20:25:00,
2013-08-10 13:40:00,73.0,49.8,30.00,NNE,17,3.0,8.0,44,0.00,OVC,,0.00,483.6,WeatherDisplay:10.37,2013-08-10 20:40:00,
2013-08-10 13:45:00,71.6,49.1,30.00,NNW,348,2.0,5.0,45,0.00,OVC,,0.00,645.6,WeatherDisplay:10.37,2013-08-10 20:45:00,
2013-08-10 13:55:00,72.3,48.5,29.99,WNW,297,1.0,6.0,43,0.00,OVC,,0.00,884.4,WeatherDisplay:10.37,2013-08-10 20:55:00,
2013-08-10 14:00:00,73.3,50.1,29.98,NW,307,3.0,4.0,44,0.00,OVC,,0.00,884.4,WeatherDisplay:10.37,2013-08-10 21:00:00,
2013-08-10 14:05:00,73.4,48.3,29.99,NNW,335,1.0,5.0,41,0.00,OVC,,0.00,337.2,WeatherDisplay:10.37,2013-08-10 21:05:00,
2013-08-10 14:10:00,71.9,47.6,29.98,North,355,1.0,3.0,42,0.00,OVC,,0.00,316.8,WeatherDisplay:10.37,2013-08-10 21:10:00,
2013-08-10 14:35:00,82.7,47.2,29.97,East,91,2.0,5.0,29,0.00,OVC,,0.00,1033.2,WeatherDisplay:10.37,2013-08-10 21:35:00,
2013-08-10 14:40:00,81.9,47.4,29.97,ESE,104,0.0,7.0,30,0.00,OVC,,0.00,738.0,WeatherDisplay:10.37,2013-08-10 21:40:00,
2013-08-10 14:45:00,80.5,47.9,29.97,ESE,112,0.0,1.0,32,0.00,OVC,,0.00,1066.8,WeatherDisplay:10.37,2013-08-10 21:45:00,
2013-08-10 14:50:00,82.5,47.0,29.97,ESE,112,1.0,4.0,29,0.00,OVC,,0.00,1012.8,WeatherDisplay:10.37,2013-08-10 21:50:00,
2013-08-10 14:55:00,82.4,47.8,29.97,East,81,0.0,4.0,30,0.00,OVC,,0.00,980.4,WeatherDisplay:10.37,2013-08-10 21:55:00,
2013-08-10 15:00:00,80.1,46.7,29.97,NNW,335,5.0,6.0,31,0.00,OVC,,0.00,964.8,WeatherDisplay:10.37,2013-08-10 22:00:00,
2013-08-10 15:15:00,80.3,46.9,29.97,NW,308,1.0,7.0,31,0.00,OVC,,0.00,962.4,WeatherDisplay:10.37,2013-08-10 22:15:00,
2013-08-10 15:20:00,80.2,48.5,29.97,NW,316,5.0,9.0,33,0.00,OVC,,0.00,957.6,WeatherDisplay:10.37,2013-08-10 22:20:00,
2013-08-10 15:25:00,78.9,48.1,29.97,WNW,299,7.0,10.0,34,0.00,OVC,,0.00,960.0,WeatherDisplay:10.37,2013-08-10 22:25:00,
2013-08-10 15:30:00,79.3,48.5,29.97,WNW,286,6.0,10.0,34,0.00,OVC,,0.00,926.4,WeatherDisplay:10.37,2013-08-10 22:30:00,
2013-08-10 15:35:00,78.7,48.7,29.97,NW,309,5.0,8.0,35,0.00,OVC,,0.00,780.0,WeatherDisplay:10.37,2013-08-10 22:35:00,
2013-08-10 15:45:00,78.6,48.7,29.97,WNW,287,6.0,9.0,35,0.00,OVC,,0.00,876.0,WeatherDisplay:10.37,2013-08-10 22:45:00,
2013-08-10 15:50:00,79.1,48.3,29.97,WNW,286,5.0,7.0,34,0.00,OVC,,0.00,856.8,WeatherDisplay:10.37,2013-08-10 22:50:00,
2013-08-10 16:05:00,78.5,46.2,29.97,West,281,8.0,15.0,32,0.00,OVC,,0.00,710.4,WeatherDisplay:10.37,2013-08-10 23:05:00,
2013-08-10 16:10:00,77.5,46.1,29.97,WNW,290,7.0,10.0,33,0.00,OVC,,0.00,325.2,WeatherDisplay:10.37,2013-08-10 23:10:00,
2013-08-10 16:15:00,76.9,48.6,29.97,WNW,289,14.0,21.0,37,0.00,OVC,,0.00,940.8,WeatherDisplay:10.37,2013-08-10 23:15:00,
2013-08-10 16:20:00,76.4,49.6,29.97,WNW,289,12.0,18.0,39,0.00,OVC,,0.00,895.2,WeatherDisplay:10.37,2013-08-10 23:20:00,
2013-08-10 16:25:00,75.5,48.1,29.97,West,280,14.0,20.0,38,0.00,OVC,,0.00,358.8,WeatherDisplay:10.37,2013-08-10 23:25:00,
2013-08-10 16:30:00,74.0,48.1,29.98,West,274,12.0,18.0,40,0.00,OVC,,0.00,211.2,WeatherDisplay:10.37,2013-08-10 23:30:00,
2013-08-10 16:35:00,71.4,47.1,29.97,West,274,15.0,21.0,42,0.00,OVC,,0.00,187.2,WeatherDisplay:10.37,2013-08-10 23:35:00,
2013-08-10 16:40:00,69.9,46.4,29.97,West,279,14.0,22.0,43,0.00,OVC,,0.00,223.2,WeatherDisplay:10.37,2013-08-10 23:40:00,
2013-08-10 16:45:00,70.3,46.7,29.98,WNW,286,12.0,19.0,43,0.00,OVC,,0.00,208.8,WeatherDisplay:10.37,2013-08-10 23:45:00,
2013-08-10 16:50:00,70.1,45.9,29.98,West,280,13.0,25.0,42,0.00,OVC,,0.00,193.2,WeatherDisplay:10.37,2013-08-10 23:50:00,
2013-08-10 16:55:00,69.5,46.6,29.98,West,272,12.0,25.0,44,0.00,OVC,,0.00,189.6,WeatherDisplay:10.37,2013-08-10 23:55:00,
2013-08-10 17:00:00,69.3,46.4,29.98,West,274,10.0,18.0,44,0.00,OVC,,0.00,186.0,WeatherDisplay:10.37,2013-08-11 00:00:00,
2013-08-10 17:05:00,69.3,45.8,29.98,West,279,15.0,19.0,43,0.00,OVC,,0.00,211.2,WeatherDisplay:10.37,2013-08-11 00:05:00,
2013-08-10 17:10:00,68.8,46.0,29.99,West,277,14.0,20.0,44,0.00,OVC,,0.00,200.4,WeatherDisplay:10.37,2013-08-11 00:10:00,
2013-08-10 17:15:00,67.8,46.8,29.99,West,274,12.0,21.0,47,0.00,OVC,,0.00,166.8,WeatherDisplay:10.37,2013-08-11 00:15:00,
2013-08-10 17:20:00,67.5,47.1,29.99,West,281,9.0,18.0,48,0.00,OVC,,0.00,147.6,WeatherDisplay:10.37,2013-08-11 00:20:00,
2013-08-10 17:25:00,67.5,46.6,29.99,WNW,284,9.0,16.0,47,0.00,OVC,,0.00,108.0,WeatherDisplay:10.37,2013-08-11 00:25:00,
2013-08-10 17:30:00,67.4,46.5,29.99,WNW,282,8.0,13.0,47,0.00,OVC,,0.00,84.0,WeatherDisplay:10.37,2013-08-11 00:30:00,
2013-08-10 17:35:00,67.4,46.5,29.99,West,279,8.0,11.0,47,0.00,OVC,,0.00,69.6,WeatherDisplay:10.37,2013-08-11 00:35:00,
2013-08-10 17:40:00,67.1,46.7,29.99,West,277,9.0,14.0,48,0.00,OVC,,0.00,86.4,WeatherDisplay:10.37,2013-08-11 00:40:00,
2013-08-10 17:45:00,67.3,46.9,30.00,WNW,286,7.0,11.0,48,0.00,OVC,,0.00,345.6,WeatherDisplay:10.37,2013-08-11 00:45:00,
2013-08-10 17:50:00,68.2,47.2,30.00,WNW,286,8.0,11.0,47,0.00,OVC,,0.00,440.4,WeatherDisplay:10.37,2013-08-11 00:50:00,
2013-08-10 18:05:00,67.7,47.8,30.00,West,275,8.0,15.0,49,0.00,OVC,,0.00,378.0,WeatherDisplay:10.37,2013-08-11 01:05:00,
2013-08-10 18:10:00,67.9,48.0,30.00,West,276,9.0,14.0,49,0.00,OVC,,0.00,325.2,WeatherDisplay:10.37,2013-08-11 01:10:00,
2013-08-10 18:15:00,67.6,48.3,30.00,WNW,287,6.0,11.0,50,0.00,OVC,,0.00,84.0,WeatherDisplay:10.37,2013-08-11 01:15:00,
2013-08-10 18:20:00,67.0,48.3,30.00,WNW,290,6.0,10.0,51,0.00,OVC,,0.00,228.0,WeatherDisplay:10.37,2013-08-11 01:20:00,
2013-08-10 18:25:00,67.0,47.7,30.00,WNW,284,9.0,15.0,50,0.00,OVC,,0.00,253.2,WeatherDisplay:10.37,2013-08-11 01:25:00,
2013-08-10 18:35:00,67.3,48.5,30.01,WNW,284,6.0,12.0,51,0.00,OVC,,0.00,264.0,WeatherDisplay:10.37,2013-08-11 01:35:00,
2013-08-10 18:40:00,67.0,48.3,30.01,WNW,287,7.0,12.0,51,0.00,OVC,,0.00,244.8,WeatherDisplay:10.37,2013-08-11 01:40:00,
2013-08-10 18:45:00,67.0,48.3,30.01,WNW,292,12.0,15.0,51,0.00,OVC,,0.00,213.6,WeatherDisplay:10.37,2013-08-11 01:45:00,
2013-08-10 18:50:00,66.8,48.6,30.01,WNW,292,7.0,13.0,52,0.00,OVC,,0.00,213.6,WeatherDisplay:10.37,2013-08-11 01:50:00,
2013-08-10 19:00:00,66.4,48.2,30.01,WNW,288,7.0,12.0,52,0.00,CLR,,0.00,122.4,WeatherDisplay:10.37,2013-08-11 02:00:00,
2013-08-10 19:05:00,66.1,48.5,30.02,WNW,284,5.0,9.0,53,0.00,CLR,,0.00,75.6,WeatherDisplay:10.37,2013-08-11 02:05:00,
2013-08-10 19:10:00,65.7,48.6,30.02,WNW,292,3.0,8.0,54,0.00,CLR,,0.00,92.4,WeatherDisplay:10.37,2013-08-11 02:10:00,
2013-08-10 19:15:00,65.7,48.6,30.02,WNW,296,3.0,6.0,54,0.00,CLR,,0.00,61.2,WeatherDisplay:10.37,2013-08-11 02:15:00,
2013-08-10 19:30:00,65.0,47.9,30.02,WNW,298,3.0,7.0,54,0.00,CLR,,0.00,44.4,WeatherDisplay:10.37,2013-08-11 02:30:00,
2013-08-10 19:35:00,65.0,47.9,30.01,NW,307,2.0,3.0,54,0.00,CLR,,0.00,42.0,WeatherDisplay:10.37,2013-08-11 02:35:00,
2013-08-10 19:40:00,64.9,47.9,30.02,NNW,329,1.0,2.0,54,0.00,CLR,,0.00,31.2,WeatherDisplay:10.37,2013-08-11 02:40:00,
2013-08-10 19:50:00,64.3,47.8,30.02,NNW,338,1.0,3.0,55,0.00,CLR,,0.00,19.2,WeatherDisplay:10.37,2013-08-11 02:50:00,
2013-08-10 19:55:00,64.2,47.7,30.02,NNW,338,1.0,3.0,55,0.00,CLR,,0.00,16.8,WeatherDisplay:10.37,2013-08-11 02:55:00,
2013-08-10 20:05:00,63.6,47.6,30.02,NNW,338,1.0,3.0,56,0.00,CLR,,0.00,8.4,WeatherDisplay:10.37,2013-08-11 03:05:00,
2013-08-10 20:10:00,63.3,47.8,30.03,NNW,338,1.0,2.0,57,0.00,CLR,,0.00,6.0,WeatherDisplay:10.37,2013-08-11 03:10:00,
2013-08-10 20:20:00,62.9,48.3,30.03,NNW,338,0.0,1.0,59,0.00,CLR,,0.00,0.0,WeatherDisplay:10.37,2013-08-11 03:20:00,
2013-08-10 20:25:00,62.7,48.2,30.03,NNW,338,0.0,2.0,59,0.00,CLR,,0.00,0.0,WeatherDisplay:10.37,2013-08-11 03:25:00,
2013-08-10 20:30:00,62.7,48.2,30.04,NNW,338,0.0,0.0,59,0.00,CLR,,0.00,0.0,WeatherDisplay:10.37,2013-08-11 03:30:00,
2013-08-10 20:35:00,62.5,48.4,30.05,NNW,338,0.0,0.0,60,0.00,CLR,,0.00,0.0,WeatherDisplay:10.37,2013-08-11 03:35:00,
2013-08-10 20:40:00,62.5,48.4,30.05,NNW,338,0.0,0.0,60,0.00,CLR,,0.00,0.0,WeatherDisplay:10.37,2013-08-11 03:40:00,
2013-08-10 20:45:00,62.6,48.5,30.05,NNW,338,0.0,1.0,60,0.00,CLR,,0.00,0.0,WeatherDisplay:10.37,2013-08-11 03:45:00,
2013-08-10 20:50:00,62.7,48.6,30.05,NNW,338,0.0,1.0,60,0.00,CLR,,0.00,0.0,WeatherDisplay:10.37,2013-08-11 03:50:00,
2013-08-10 20:55:00,62.6,48.5,30.06,NNW,338,0.0,2.0,60,0.00,CLR,,0.00,0.0,WeatherDisplay:10.37,2013-08-11 03:55:00,
2013-08-10 21:00:00,62.4,48.3,30.06,NNW,338,2.0,4.0,60,0.00,CLR,,0.00,0.0,WeatherDisplay:10.37,2013-08-11 04:00:00,
2013-08-10 21:05:00,62.3,48.2,30.06,NNW,335,1.0,4.0,60,0.00,CLR,,0.00,0.0,WeatherDisplay:10.37,2013-08-11 04:05:00,
2013-08-10 21:10:00,62.2,48.1,30.06,NW,312,2.0,3.0,60,0.00,CLR,,0.00,0.0,WeatherDisplay:10.37,2013-08-11 04:10:00,